Time;durP1;ratioP1;P1;durP2;ratioP2;P2;SDS_P1;SDS_P2;PMS_P1;PMS_P2;Temp;Humidity;BMP_temperature;BMP_pressure;BME280_temperature;BME280_humidity;BME280_pressure;Samples;Min_cycle;Max_cycle;Signal;HPM_P1;HPM_P2
2022/06/30 00:02:21;;;;;;;81.72;65.28;;;;;;;-145.67;100.00;66521.78;4982875;28;20027;-72
2022/06/30 00:04:49;;;;;;;77.00;64.03;;;;;;;-145.67;100.00;66521.78;4982352;28;20414;-72
2022/06/30 00:07:15;;;;;;;78.65;64.63;;;;;;;-145.67;100.00;66521.78;4980636;28;20107;-73
2022/06/30 00:09:40;;;;;;;76.65;64.57;;;;;;;-145.67;100.00;66521.78;4997295;28;20038;-72
2022/06/30 00:12:07;;;;;;;74.47;59.53;;;;;;;-145.67;100.00;66521.78;4981980;28;20037;-72
2022/06/30 00:14:32;;;;;;;79.43;61.78;;;;;;;-145.67;100.00;66521.78;4984933;28;20037;-73
2022/06/30 00:17:00;;;;;;;73.88;58.50;;;;;;;-145.67;100.00;66521.78;4970469;28;20127;-72
2022/06/30 00:19:26;;;;;;;64.63;54.53;;;;;;;-145.67;100.00;66521.78;4983861;28;20038;-73
2022/06/30 00:21:51;;;;;;;60.53;49.95;;;;;;;-145.67;100.00;66521.78;4981006;28;20041;-72
2022/06/30 00:24:16;;;;;;;67.68;56.28;;;;;;;-145.67;100.00;66521.78;4980840;28;20294;-72
2022/06/30 00:26:42;;;;;;;65.97;52.92;;;;;;;-145.67;100.00;66521.78;4982858;28;20222;-74
2022/06/30 00:29:08;;;;;;;66.35;55.50;;;;;;;-145.67;100.00;66521.78;4983602;28;20044;-72
2022/06/30 00:31:34;;;;;;;61.15;52.10;;;;;;;-145.67;100.00;66521.78;4983111;28;20065;-72
2022/06/30 00:34:01;;;;;;;63.03;53.70;;;;;;;-145.67;100.00;66521.78;4989128;28;20036;-75
2022/06/30 00:36:27;;;;;;;64.00;53.67;;;;;;;-145.67;100.00;66521.78;4993382;28;20483;-72
2022/06/30 00:38:54;;;;;;;56.80;47.83;;;;;;;-145.67;100.00;66521.78;4981111;28;20415;-72
2022/06/30 00:41:20;;;;;;;55.20;46.13;;;;;;;-145.67;100.00;66521.78;4984735;28;20061;-72
2022/06/30 00:43:48;;;;;;;49.78;42.67;;;;;;;-145.67;100.00;66521.78;4996231;28;20465;-72
2022/06/30 00:46:15;;;;;;;49.22;41.05;;;;;;;-145.67;100.00;66521.78;5006436;28;20030;-73
2022/06/30 00:48:42;;;;;;;50.58;42.05;;;;;;;-145.67;100.00;66521.78;5015549;28;20406;-73
2022/06/30 00:51:10;;;;;;;46.05;40.15;;;;;;;-145.67;100.00;66521.78;4994184;28;20485;-72
2022/06/30 00:53:37;;;;;;;43.75;37.30;;;;;;;-145.67;100.00;66521.78;4983355;28;20037;-73
2022/06/30 00:56:05;;;;;;;43.88;36.47;;;;;;;-145.67;100.00;66521.78;5002908;28;20218;-73
2022/06/30 00:58:37;;;;;;;44.00;35.53;;;;;;;-145.67;100.00;66521.78;5004439;28;20045;-73
2022/06/30 01:01:04;;;;;;;38.60;32.63;;;;;;;-145.67;100.00;66521.78;4988067;28;20054;-72
2022/06/30 01:03:31;;;;;;;38.42;31.00;;;;;;;-145.67;100.00;66521.78;4979022;28;20406;-72
2022/06/30 01:05:58;;;;;;;36.03;29.42;;;;;;;-145.67;100.00;66521.78;4994206;28;20066;-73
2022/06/30 01:08:25;;;;;;;36.58;28.00;;;;;;;-145.67;100.00;66521.78;5001347;28;20050;-72
2022/06/30 01:13:37;;;;;;;26.58;22.05;;;;;;;-145.67;100.00;66521.78;4984287;28;21944;-72
2022/06/30 01:16:05;;;;;;;24.45;20.63;;;;;;;-145.67;100.00;66521.78;4988556;28;20489;-74
2022/06/30 01:18:33;;;;;;;22.55;19.20;;;;;;;-145.67;100.00;66521.78;4987193;28;20161;-73
2022/06/30 01:21:01;;;;;;;26.27;21.63;;;;;;;-145.67;100.00;66521.78;5014774;28;21002;-73
2022/06/30 01:23:27;;;;;;;28.98;23.27;;;;;;;-145.67;100.00;66521.78;5000949;28;20042;-73
2022/06/30 01:25:55;;;;;;;27.15;23.73;;;;;;;-145.67;100.00;66521.78;4979839;28;20124;-73
2022/06/30 01:28:21;;;;;;;28.30;25.30;;;;;;;-145.67;100.00;66521.78;4968856;28;20132;-72
2022/06/30 01:30:47;;;;;;;30.50;27.02;;;;;;;-145.67;100.00;66521.78;4968027;28;20046;-72
2022/06/30 01:33:13;;;;;;;28.67;25.30;;;;;;;-145.67;100.00;66521.78;4981357;28;20117;-73
2022/06/30 01:35:38;;;;;;;29.80;25.42;;;;;;;-145.67;100.00;66521.78;4977615;28;20048;-72
2022/06/30 01:38:04;;;;;;;29.10;25.08;;;;;;;-145.67;100.00;66521.78;4980037;28;20038;-72
2022/06/30 01:40:36;;;;;;;38.80;31.98;;;;;;;-145.67;100.00;66521.78;4981647;28;20240;-73
2022/06/30 01:43:06;;;;;;;37.00;32.95;;;;;;;-145.67;100.00;66521.78;4989222;28;20038;-72
2022/06/30 01:45:33;;;;;;;35.08;30.33;;;;;;;-145.67;100.00;66521.78;4981060;28;20034;-72
2022/06/30 01:47:59;;;;;;;34.85;31.13;;;;;;;-145.67;100.00;66521.78;4984872;28;20053;-72
2022/06/30 01:50:28;;;;;;;36.15;32.42;;;;;;;-145.67;100.00;66521.78;4968712;28;20134;-72
2022/06/30 01:52:54;;;;;;;41.72;34.10;;;;;;;-145.67;100.00;66521.78;4979081;28;20062;-73
2022/06/30 01:55:20;;;;;;;44.80;37.60;;;;;;;-145.67;100.00;66521.78;4981124;28;20042;-73
2022/06/30 01:57:49;;;;;;;42.03;37.60;;;;;;;-145.67;100.00;66521.78;4982368;28;20168;-73
2022/06/30 02:00:18;;;;;;;42.13;37.10;;;;;;;-145.67;100.00;66521.78;4979014;28;20061;-73
2022/06/30 02:02:49;;;;;;;43.47;37.00;;;;;;;-145.67;100.00;66521.78;4979055;28;20065;-73
2022/06/30 02:05:14;;;;;;;42.50;37.33;;;;;;;-145.67;100.00;66521.78;4994990;28;20045;-73
2022/06/30 02:07:40;;;;;;;41.45;36.97;;;;;;;-145.67;100.00;66521.78;4978977;28;20116;-73
2022/06/30 02:10:14;;;;;;;42.75;37.83;;;;;;;-145.67;100.00;66521.78;4979474;28;20049;-73
2022/06/30 02:12:45;;;;;;;41.50;36.95;;;;;;;-145.67;100.00;66521.78;4962932;28;20048;-73
2022/06/30 02:15:17;;;;;;;42.78;38.28;;;;;;;-145.67;100.00;66521.78;4968314;28;20110;-72
2022/06/30 02:17:43;;;;;;;;;;;;;;;-145.67;100.00;66521.78;4978949;28;20038;-72
2022/06/30 02:20:09;;;;;;;45.33;40.40;;;;;;;-145.67;100.00;66521.78;4992636;28;20013;-74
2022/06/30 02:22:39;;;;;;;58.38;48.55;;;;;;;-145.67;100.00;66521.78;4980363;28;20108;-73
2022/06/30 02:25:06;;;;;;;56.67;47.85;;;;;;;-145.67;100.00;66521.78;4968650;28;20069;-72
2022/06/30 02:27:32;;;;;;;59.15;49.03;;;;;;;-145.67;100.00;66521.78;4986862;28;20873;-72
2022/06/30 02:29:57;;;;;;;56.45;46.90;;;;;;;-145.67;100.00;66521.78;4958536;28;20042;-73
2022/06/30 02:32:22;;;;;;;53.00;46.28;;;;;;;-145.67;100.00;66521.78;4979013;28;20067;-72
2022/06/30 02:34:49;;;;;;;52.03;42.10;;;;;;;-145.67;100.00;66521.78;4980756;28;20486;-72
2022/06/30 02:37:15;;;;;;;49.30;44.20;;;;;;;-145.67;100.00;66521.78;4979860;28;20268;-72
2022/06/30 02:39:41;;;;;;;51.45;44.63;;;;;;;-145.67;100.00;66521.78;4978673;28;20428;-73
2022/06/30 02:42:06;;;;;;;51.05;44.10;;;;;;;-145.67;100.00;66521.78;4980693;28;20106;-72
2022/06/30 02:44:32;;;;;;;56.92;49.72;;;;;;;-145.67;100.00;66521.78;4985012;28;20034;-74
2022/06/30 02:47:00;;;;;;;54.85;48.95;;;;;;;-145.67;100.00;66521.78;4984478;28;20071;-72
2022/06/30 02:49:29;;;;;;;51.28;44.90;;;;;;;-145.67;100.00;66521.78;4977456;28;20514;-73
2022/06/30 02:51:54;;;;;;;48.50;43.30;;;;;;;-145.67;100.00;66521.78;4982279;28;20044;-75
2022/06/30 02:54:20;;;;;;;49.15;42.55;;;;;;;-145.67;100.00;66521.78;4966964;28;20120;-76
2022/06/30 02:56:47;;;;;;;44.60;39.83;;;;;;;-145.67;100.00;66521.78;4982047;28;20284;-75
2022/06/30 02:59:13;;;;;;;47.13;39.67;;;;;;;-145.67;100.00;66521.78;4985116;28;20040;-76
2022/06/30 03:01:38;;;;;;;48.63;40.30;;;;;;;-145.67;100.00;66521.78;4979436;28;20042;-74
2022/06/30 03:04:04;;;;;;;44.55;39.65;;;;;;;-145.67;100.00;66521.78;4979216;28;20187;-75
2022/06/30 03:06:31;;;;;;;47.58;39.35;;;;;;;-145.67;100.00;66521.78;4968229;28;20088;-76
2022/06/30 03:08:58;;;;;;;44.63;38.92;;;;;;;-145.67;100.00;66521.78;4978853;28;20272;-77
2022/06/30 03:11:24;;;;;;;47.10;39.28;;;;;;;-145.67;100.00;66521.78;4982583;28;20747;-74
2022/06/30 03:13:49;;;;;;;47.05;40.53;;;;;;;-145.67;100.00;66521.78;4980914;28;20048;-75
2022/06/30 03:16:19;;;;;;;44.67;39.83;;;;;;;-145.67;100.00;66521.78;4997753;28;20030;-75
2022/06/30 03:18:44;;;;;;;46.20;40.17;;;;;;;-145.67;100.00;66521.78;4997567;28;20041;-72
2022/06/30 03:21:10;;;;;;;52.40;41.70;;;;;;;-145.67;100.00;66521.78;5013598;28;20109;-72
2022/06/30 03:23:36;;;;;;;47.30;38.97;;;;;;;-145.67;100.00;66521.78;5012867;28;20037;-72
2022/06/30 03:26:03;;;;;;;47.22;39.88;;;;;;;-145.67;100.00;66521.78;4983295;28;21817;-73
2022/06/30 03:28:28;;;;;;;53.17;42.83;;;;;;;-145.67;100.00;66521.78;4982683;28;20118;-73
2022/06/30 03:30:54;;;;;;;47.08;40.22;;;;;;;-145.67;100.00;66521.78;4998038;28;20419;-73
2022/06/30 03:33:20;;;;;;;52.13;41.47;;;;;;;-145.67;100.00;66521.78;4986900;28;20340;-72
2022/06/30 03:35:46;;;;;;;47.75;40.75;;;;;;;-145.67;100.00;66521.78;4991682;28;20037;-72
2022/06/30 03:38:13;;;;;;;57.00;47.40;;;;;;;-145.67;100.00;66521.78;4995702;28;20041;-72
2022/06/30 03:40:39;;;;;;;57.78;46.50;;;;;;;-145.67;100.00;66521.78;4997954;28;20044;-72
2022/06/30 03:43:04;;;;;;;55.58;45.80;;;;;;;-145.67;100.00;66521.78;4989449;28;20030;-72
2022/06/30 03:45:30;;;;;;;51.92;45.60;;;;;;;-145.67;100.00;66521.78;4985044;28;20040;-73
2022/06/30 03:48:01;;;;;;;57.65;45.85;;;;;;;-145.67;100.00;66521.78;4966164;28;20104;-71
2022/06/30 03:50:27;;;;;;;55.72;44.97;;;;;;;-145.67;100.00;66521.78;4970300;28;20622;-73
2022/06/30 03:52:55;;;;;;;55.00;46.00;;;;;;;-145.67;100.00;66521.78;4977394;28;20045;-72
2022/06/30 03:55:21;;;;;;;53.47;43.92;;;;;;;-145.67;100.00;66521.78;4980737;28;20041;-73
2022/06/30 03:57:46;;;;;;;56.35;46.30;;;;;;;-145.67;100.00;66521.78;4976634;28;20043;-72
2022/06/30 04:00:12;;;;;;;56.30;48.08;;;;;;;-145.67;100.00;66521.78;4969304;28;20121;-73
2022/06/30 04:02:38;;;;;;;59.55;47.60;;;;;;;-145.67;100.00;66521.78;4986310;28;20742;-72
2022/06/30 04:05:06;;;;;;;60.42;47.85;;;;;;;-145.67;100.00;66521.78;4964447;28;20049;-72
2022/06/30 04:07:32;;;;;;;53.90;47.97;;;;;;;-145.67;100.00;66521.78;4984288;28;20049;-73
2022/06/30 04:09:59;;;;;;;51.78;43.70;;;;;;;-145.67;100.00;66521.78;4979692;28;20045;-75
2022/06/30 04:12:25;;;;;;;54.63;46.80;;;;;;;-145.67;100.00;66521.78;4981492;28;20037;-74
2022/06/30 04:14:53;;;;;;;54.38;45.58;;;;;;;-145.67;100.00;66521.78;4982999;28;20581;-72
2022/06/30 04:17:18;;;;;;;48.42;41.80;;;;;;;-145.67;100.00;66521.78;4995434;28;20045;-72
2022/06/30 04:19:46;;;;;;;45.58;40.70;;;;;;;-145.67;100.00;66521.78;4982115;28;20540;-72
2022/06/30 04:22:11;;;;;;;44.08;37.88;;;;;;;-145.67;100.00;66521.78;4978462;28;20228;-73
2022/06/30 04:24:36;;;;;;;38.65;34.45;;;;;;;-145.67;100.00;66521.78;4982042;28;20053;-72
2022/06/30 04:27:03;;;;;;;31.10;27.75;;;;;;;-145.67;100.00;66521.78;4982107;28;20239;-71
2022/06/30 04:29:31;;;;;;;24.67;21.98;;;;;;;-145.67;100.00;66521.78;4977213;28;20034;-72
2022/06/30 04:34:40;;;;;;;26.00;19.83;;;;;;;-145.67;100.00;66521.78;4990654;28;20033;-72
2022/06/30 04:37:06;;;;;;;21.50;19.13;;;;;;;-145.67;100.00;66521.78;4989469;28;20114;-73
2022/06/30 04:39:31;;;;;;;24.75;19.55;;;;;;;-145.67;100.00;66521.78;5001335;28;20127;-74
2022/06/30 04:41:56;;;;;;;23.38;20.17;;;;;;;-145.67;100.00;66521.78;5001481;28;20038;-73
2022/06/30 04:44:22;;;;;;;21.85;16.95;;;;;;;-145.67;100.00;66521.78;4989265;28;20037;-75
2022/06/30 04:46:47;;;;;;;20.90;15.43;;;;;;;-145.67;100.00;66521.78;5001469;28;20117;-71
2022/06/30 04:49:17;;;;;;;18.58;15.30;;;;;;;-145.67;100.00;66521.78;5001425;28;20076;-72
2022/06/30 04:51:43;;;;;;;19.88;14.65;;;;;;;-145.67;100.00;66521.78;4996006;28;20058;-72
2022/06/30 04:54:08;;;;;;;16.10;14.07;;;;;;;-145.67;100.00;66521.78;4994160;28;20037;-72
2022/06/30 04:56:34;;;;;;;18.63;13.93;;;;;;;-145.67;100.00;66521.78;4988316;28;21271;-72
2022/06/30 04:58:59;;;;;;;17.48;14.57;;;;;;;-145.67;100.00;66521.78;4989412;28;20040;-72
2022/06/30 05:01:25;;;;;;;16.27;13.00;;;;;;;-145.67;100.00;66521.78;5003612;28;20026;-72
2022/06/30 05:03:50;;;;;;;12.85;10.18;;;;;;;-145.67;100.00;66521.78;4998597;28;20466;-76
2022/06/30 05:06:16;;;;;;;11.40;7.22;;;;;;;-145.67;100.00;66521.78;5002281;28;20053;-74
2022/06/30 05:08:42;;;;;;;7.45;5.03;;;;;;;-145.67;100.00;66521.78;5000838;28;20865;-73
2022/06/30 05:11:10;;;;;;;9.90;4.88;;;;;;;-145.67;100.00;66521.78;5001724;28;20116;-75
2022/06/30 05:13:38;;;;;;;7.07;4.03;;;;;;;-145.67;100.00;66521.78;5006460;28;20084;-75
2022/06/30 05:16:04;;;;;;;6.60;3.33;;;;;;;-145.67;100.00;66521.78;5005339;28;20029;-74
2022/06/30 05:18:29;;;;;;;7.43;3.67;;;;;;;-145.67;100.00;66521.78;5000126;28;20087;-75
2022/06/30 05:20:54;;;;;;;5.35;2.20;;;;;;;-145.67;100.00;66521.78;5002177;28;20043;-75
2022/06/30 05:23:20;;;;;;;8.80;1.98;;;;;;;-145.67;100.00;66521.78;5001131;28;20125;-76
2022/06/30 05:28:33;;;;;;;5.60;1.50;;;;;;;-145.67;100.00;66521.78;5000718;28;20300;-75
2022/06/30 05:30:59;;;;;;;5.60;1.55;;;;;;;-145.67;100.00;66521.78;5003235;28;20052;-75
2022/06/30 05:33:24;;;;;;;4.40;1.40;;;;;;;-145.67;100.00;66521.78;5002024;28;20323;-75
2022/06/30 05:35:51;;;;;;;4.55;1.67;;;;;;;-145.67;100.00;66521.78;5001695;28;20087;-73
2022/06/30 05:38:17;;;;;;;10.45;1.90;;;;;;;-145.67;100.00;66521.78;4999014;28;20284;-71
2022/06/30 05:40:47;;;;;;;4.93;1.90;;;;;;;-145.67;100.00;66521.78;4997492;28;20041;-72
2022/06/30 05:43:17;;;;;;;4.50;1.77;;;;;;;-145.67;100.00;66521.78;4987930;28;20033;-72
2022/06/30 05:45:45;;;;;;;6.90;1.70;;;;;;;-145.67;100.00;66521.78;4995442;28;20059;-72
2022/06/30 05:48:11;;;;;;;5.82;1.88;;;;;;;-145.67;100.00;66521.78;4998652;28;20049;-72
2022/06/30 05:50:37;;;;;;;6.18;1.88;;;;;;;-145.67;100.00;66521.78;4998530;28;20040;-71
2022/06/30 05:53:02;;;;;;;5.25;1.75;;;;;;;-145.67;100.00;66521.78;4998227;28;20159;-73
2022/06/30 05:55:30;;;;;;;6.90;1.98;;;;;;;-145.67;100.00;66521.78;5013870;28;20041;-72
2022/06/30 05:58:01;;;;;;;6.57;2.10;;;;;;;-145.67;100.00;66521.78;4996766;28;20553;-73
2022/06/30 06:00:28;;;;;;;6.35;1.73;;;;;;;-145.67;100.00;66521.78;4999577;28;20112;-71
2022/06/30 06:02:54;;;;;;;6.43;1.75;;;;;;;-145.67;100.00;66521.78;4999573;28;20041;-74
2022/06/30 06:05:20;;;;;;;5.15;1.70;;;;;;;-145.67;100.00;66521.78;4987682;28;20191;-72
2022/06/30 06:07:47;;;;;;;5.63;1.88;;;;;;;-145.67;100.00;66521.78;5001698;28;20049;-73
2022/06/30 06:10:13;;;;;;;6.85;2.05;;;;;;;-145.67;100.00;66521.78;4998609;28;20143;-72
2022/06/30 06:12:39;;;;;;;8.40;2.03;;;;;;;-145.67;100.00;66521.78;4998375;28;20049;-73
2022/06/30 06:15:06;;;;;;;9.13;2.10;;;;;;;-145.67;100.00;66521.78;4986029;28;20033;-73
2022/06/30 06:17:31;;;;;;;11.05;2.42;;;;;;;-145.67;100.00;66521.78;4997265;28;20072;-73
2022/06/30 06:19:57;;;;;;;8.88;2.00;;;;;;;-145.67;100.00;66521.78;4994368;28;20109;-72
2022/06/30 06:22:25;;;;;;;6.13;1.80;;;;;;;-145.67;100.00;66521.78;4998239;28;20033;-72
2022/06/30 06:24:50;;;;;;;7.70;1.80;;;;;;;-145.67;100.00;66521.78;4999484;28;20664;-71
2022/06/30 06:27:18;;;;;;;9.85;1.80;;;;;;;-145.67;100.00;66521.78;4996872;28;20064;-73
2022/06/30 06:29:50;;;;;;;7.38;1.80;;;;;;;-145.67;100.00;66521.78;4996224;28;20034;-72
2022/06/30 06:32:16;;;;;;;11.23;1.92;;;;;;;-145.67;100.00;66521.78;4997540;28;20041;-75
2022/06/30 06:34:41;;;;;;;7.18;1.67;;;;;;;-145.67;100.00;66521.78;5005495;28;20037;-75
2022/06/30 06:37:07;;;;;;;6.95;1.50;;;;;;;-145.67;100.00;66521.78;5000511;28;20035;-75
2022/06/30 06:39:33;;;;;;;7.82;2.15;;;;;;;-145.67;100.00;66521.78;4998018;28;20456;-73
2022/06/30 06:41:58;;;;;;;6.65;1.70;;;;;;;-145.67;100.00;66521.78;5002802;28;20037;-73
2022/06/30 06:44:23;;;;;;;7.93;2.13;;;;;;;-145.67;100.00;66521.78;5015620;28;20033;-75
2022/06/30 06:46:49;;;;;;;6.18;1.38;;;;;;;-145.67;100.00;66521.78;5003380;28;20043;-76
2022/06/30 06:49:15;;;;;;;6.50;1.67;;;;;;;-145.67;100.00;66521.78;4983327;28;20041;-74
2022/06/30 06:51:41;;;;;;;8.02;1.63;;;;;;;-145.67;100.00;66521.78;5000695;28;20493;-75
2022/06/30 06:54:06;;;;;;;5.53;1.48;;;;;;;-145.67;100.00;66521.78;5002574;28;20049;-73
2022/06/30 06:56:31;;;;;;;11.35;2.08;;;;;;;-145.67;100.00;66521.78;5005733;28;20514;-77
2022/06/30 06:58:57;;;;;;;9.13;1.90;;;;;;;-145.67;100.00;66521.78;5001631;28;20080;-73
2022/06/30 07:01:26;;;;;;;5.80;1.90;;;;;;;-145.67;100.00;66521.78;4999183;28;20038;-71
2022/06/30 07:03:52;;;;;;;8.00;1.80;;;;;;;-145.67;100.00;66521.78;4996393;28;20037;-73
2022/06/30 07:06:21;;;;;;;6.03;1.58;;;;;;;-145.67;100.00;66521.78;4979732;28;20399;-73
2022/06/30 07:08:46;;;;;;;5.68;1.48;;;;;;;-145.67;100.00;66521.78;4998150;28;20513;-74
2022/06/30 07:11:12;;;;;;;4.85;1.67;;;;;;;-145.67;100.00;66521.78;4996934;28;20484;-73
2022/06/30 07:13:38;;;;;;;6.97;1.83;;;;;;;-145.67;100.00;66521.78;4997157;28;20123;-73
2022/06/30 07:16:04;;;;;;;6.70;1.60;;;;;;;-145.67;100.00;66521.78;4994731;28;20041;-74
2022/06/30 07:18:29;;;;;;;5.45;1.42;;;;;;;-145.67;100.00;66521.78;4992124;28;20514;-75
2022/06/30 07:20:54;;;;;;;6.50;1.85;;;;;;;-145.67;100.00;66521.78;5003397;28;20117;-75
2022/06/30 07:23:24;;;;;;;7.05;1.63;;;;;;;-145.67;100.00;66521.78;4990372;28;20044;-77
2022/06/30 07:25:52;;;;;;;6.95;1.73;;;;;;;-145.67;100.00;66521.78;5017108;28;20166;-75
2022/06/30 07:28:17;;;;;;;6.25;1.73;;;;;;;-145.67;100.00;66521.78;4999046;28;20100;-75
2022/06/30 07:30:43;;;;;;;6.80;1.83;;;;;;;-145.67;100.00;66521.78;4983489;28;20056;-74
2022/06/30 07:33:11;;;;;;;9.95;1.70;;;;;;;-145.67;100.00;66521.78;5000554;28;20832;-75
2022/06/30 07:35:43;;;;;;;6.95;1.60;;;;;;;-145.67;100.00;66521.78;4999037;28;20817;-74
2022/06/30 07:38:09;;;;;;;6.78;1.80;;;;;;;-145.67;100.00;66521.78;5001527;28;20038;-75
2022/06/30 07:40:35;;;;;;;5.82;1.40;;;;;;;-145.67;100.00;66521.78;5002711;28;20329;-75
2022/06/30 07:43:00;;;;;;;6.38;1.80;;;;;;;-145.67;100.00;66521.78;5016295;28;20038;-75
2022/06/30 07:45:26;;;;;;;6.53;1.50;;;;;;;-145.67;100.00;66521.78;4994185;28;20038;-75
2022/06/30 07:47:54;;;;;;;5.75;1.60;;;;;;;-145.67;100.00;66521.78;4978321;28;20053;-73
2022/06/30 07:50:21;;;;;;;6.38;1.42;;;;;;;-145.67;100.00;66521.78;4990251;28;20097;-75
2022/06/30 07:52:47;;;;;;;8.25;1.80;;;;;;;-145.67;100.00;66521.78;5004849;28;20026;-73
2022/06/30 07:55:13;;;;;;;7.18;1.50;;;;;;;-145.67;100.00;66521.78;5002125;28;20038;-73
2022/06/30 07:57:42;;;;;;;6.35;1.60;;;;;;;-145.67;100.00;66521.78;5005796;28;20078;-73
2022/06/30 08:00:09;;;;;;;6.95;1.70;;;;;;;-145.67;100.00;66521.78;5001624;28;21879;-74
2022/06/30 08:02:35;;;;;;;6.18;1.30;;;;;;;-145.67;100.00;66521.78;5001809;28;20037;-75
2022/06/30 08:05:00;;;;;;;5.28;1.52;;;;;;;-145.67;100.00;66521.78;5001056;28;20996;-74
2022/06/30 08:07:28;;;;;;;7.00;1.50;;;;;;;-145.67;100.00;66521.78;5002474;28;20084;-77
2022/06/30 08:09:54;;;;;;;5.63;1.77;;;;;;;-145.67;100.00;66521.78;4998714;28;20041;-75
2022/06/30 08:12:21;;;;;;;7.22;1.58;;;;;;;-145.67;100.00;66521.78;4977554;28;20037;-76
2022/06/30 08:14:47;;;;;;;7.38;1.55;;;;;;;-145.67;100.00;66521.78;5000758;28;20498;-76
2022/06/30 08:17:13;;;;;;;5.50;1.75;;;;;;;-145.67;100.00;66521.78;4999762;28;20037;-76
2022/06/30 08:19:41;;;;;;;7.10;1.55;;;;;;;-145.67;100.00;66521.78;4997582;28;20123;-73
2022/06/30 08:22:07;;;;;;;6.50;1.40;;;;;;;-145.67;100.00;66521.78;5011465;28;20766;-74
2022/06/30 08:24:33;;;;;;;5.20;1.40;;;;;;;-145.67;100.00;66521.78;5011975;28;20536;-77
2022/06/30 08:27:02;;;;;;;6.00;1.38;;;;;;;-145.67;100.00;66521.78;5001059;28;20025;-75
2022/06/30 08:29:32;;;;;;;5.25;1.40;;;;;;;-145.67;100.00;66521.78;5006189;28;20040;-76
2022/06/30 08:32:01;;;;;;;6.45;1.52;;;;;;;-145.67;100.00;66521.78;5016635;28;20643;-81
2022/06/30 08:34:32;;;;;;;5.88;1.55;;;;;;;-145.67;100.00;66521.78;5000752;28;20061;-76
2022/06/30 08:36:57;;;;;;;7.00;1.17;;;;;;;-145.67;100.00;66521.78;5014533;28;20049;-72
2022/06/30 08:42:08;;;;;;;7.57;1.70;;;;;;;-145.67;100.00;66521.78;5001586;28;20464;-75
2022/06/30 08:44:35;;;;;;;5.22;1.65;;;;;;;-145.67;100.00;66521.78;4998634;28;21271;-75
2022/06/30 08:47:02;;;;;;;8.32;2.00;;;;;;;-145.67;100.00;66521.78;5000884;28;20417;-73
2022/06/30 08:49:28;;;;;;;8.05;1.83;;;;;;;-145.67;100.00;66521.78;5001151;28;26324;-74
2022/06/30 08:51:58;;;;;;;6.60;1.50;;;;;;;-145.67;100.00;66521.78;4993004;28;20039;-73
2022/06/30 08:54:28;;;;;;;7.13;1.73;;;;;;;-145.67;100.00;66521.78;5005329;28;20141;-75
2022/06/30 08:56:54;;;;;;;6.00;1.63;;;;;;;-145.67;100.00;66521.78;5014938;28;20536;-73
2022/06/30 08:59:22;;;;;;;6.53;1.80;;;;;;;-145.67;100.00;66521.78;5005234;28;20037;-76
2022/06/30 09:01:48;;;;;;;8.88;1.80;;;;;;;-145.67;100.00;66521.78;4997799;28;20128;-72
2022/06/30 09:04:16;;;;;;;7.80;1.75;;;;;;;-145.67;100.00;66521.78;4998702;28;20675;-72
2022/06/30 09:06:43;;;;;;;6.25;1.75;;;;;;;-145.67;100.00;66521.78;4999682;28;20053;-72
2022/06/30 09:09:09;;;;;;;5.90;1.67;;;;;;;-145.67;100.00;66521.78;5013220;28;20388;-76
2022/06/30 09:11:55;;;;;;;6.05;1.42;;;;;;;-145.67;100.00;66521.78;5001853;28;20064;-73
2022/06/30 09:14:39;;;;;;;5.25;1.50;;;;;;;-145.67;100.00;66521.78;5000511;28;20052;-73
2022/06/30 09:17:16;;;;;;;8.18;1.80;;;;;;;-145.67;100.00;66521.78;5003515;28;20048;-72
2022/06/30 09:19:55;;;;;;;3.88;1.60;;;;;;;-145.67;100.00;66521.78;4999405;28;20438;-73
2022/06/30 09:22:40;;;;;;;6.97;1.42;;;;;;;-145.67;100.00;66521.78;4995621;28;20140;-73
2022/06/30 09:25:07;;;;;;;5.45;1.40;;;;;;;-145.67;100.00;66521.78;5013574;28;20165;-73
2022/06/30 09:27:34;;;;;;;4.90;1.48;;;;;;;-145.67;100.00;66521.78;4997610;28;20055;-72
2022/06/30 09:30:09;;;;;;;4.53;1.50;;;;;;;-145.67;100.00;66521.78;4999479;28;20428;-74
2022/06/30 09:32:43;;;;;;;5.55;1.92;;;;;;;-145.67;100.00;66521.78;5001673;28;20037;-72
2022/06/30 09:35:10;;;;;;;7.68;1.95;;;;;;;-145.67;100.00;66521.78;4999651;28;20046;-72
2022/06/30 09:37:36;;;;;;;6.72;1.60;;;;;;;-145.67;100.00;66521.78;4987124;28;20255;-72
2022/06/30 09:40:05;;;;;;;7.50;1.52;;;;;;;-145.67;100.00;66521.78;4996223;28;20766;-74
2022/06/30 09:42:45;;;;;;;3.47;1.20;;;;;;;-145.67;100.00;66521.78;5011544;28;20029;-74
2022/06/30 09:45:15;;;;;;;6.07;1.50;;;;;;;-145.67;100.00;66521.78;5000099;28;20179;-75
2022/06/30 09:47:54;;;;;;;5.57;1.40;;;;;;;-145.67;100.00;66521.78;4986221;28;20110;-73
2022/06/30 09:50:21;;;;;;;6.45;1.65;;;;;;;-145.67;100.00;66521.78;4996794;28;20064;-73
2022/06/30 09:53:02;;;;;;;5.18;1.23;;;;;;;-145.67;100.00;66521.78;5000739;28;20045;-73
2022/06/30 09:55:37;;;;;;;6.95;1.50;;;;;;;-145.67;100.00;66521.78;4995224;28;20033;-74
2022/06/30 09:58:03;;;;;;;4.47;1.40;;;;;;;-145.67;100.00;66521.78;5002793;28;20037;-73
2022/06/30 10:00:28;;;;;;;4.28;1.20;;;;;;;-145.67;100.00;66521.78;4996790;28;20595;-74
2022/06/30 10:02:56;;;;;;;5.55;1.30;;;;;;;-145.67;100.00;66521.78;4999398;28;20037;-75
2022/06/30 10:05:21;;;;;;;5.18;1.50;;;;;;;-145.67;100.00;66521.78;4974763;28;20049;-73
2022/06/30 10:07:47;;;;;;;4.60;1.10;;;;;;;-145.67;100.00;66521.78;5014462;28;20171;-72
2022/06/30 10:10:15;;;;;;;8.30;1.67;;;;;;;-145.67;100.00;66521.78;4999529;28;20030;-77
2022/06/30 10:12:45;;;;;;;5.43;1.20;;;;;;;-145.67;100.00;66521.78;4999778;28;20073;-74
2022/06/30 10:15:12;;;;;;;2.88;0.93;;;;;;;-145.67;100.00;66521.78;4996214;28;20065;-74
2022/06/30 10:17:47;;;;;;;4.32;1.20;;;;;;;-145.67;100.00;66521.78;4999816;28;20041;-75
2022/06/30 10:20:13;;;;;;;5.45;1.23;;;;;;;-145.67;100.00;66521.78;4998646;28;20133;-75
2022/06/30 10:22:39;;;;;;;4.82;1.60;;;;;;;-145.67;100.00;66521.78;5014902;28;20034;-78
2022/06/30 10:25:10;;;;;;;4.05;1.40;;;;;;;-145.67;100.00;66521.78;5009409;28;20033;-78
2022/06/30 10:27:36;;;;;;;4.35;1.23;;;;;;;-145.67;100.00;66521.78;5002059;28;20135;-77
2022/06/30 10:30:15;;;;;;;6.22;1.33;;;;;;;-145.67;100.00;66521.78;5007494;28;20053;-78
2022/06/30 10:32:56;;;;;;;5.50;1.52;;;;;;;-145.67;100.00;66521.78;4996209;28;20034;-81
2022/06/30 10:35:42;;;;;;;4.85;1.73;;;;;;;-145.67;100.00;66521.78;5002934;28;20057;-79
2022/06/30 10:38:48;;;;;;;5.28;1.75;;;;;;;-145.67;100.00;66521.78;5003855;28;20104;-79
2022/06/30 10:41:14;;;;;;;4.68;1.45;;;;;;;-145.67;100.00;66521.78;4957202;28;20185;-79
2022/06/30 10:44:05;;;;;;;5.75;1.25;;;;;;;-145.67;100.00;66521.78;4957188;28;20502;-76
2022/06/30 10:46:45;;;;;;;6.25;1.88;;;;;;;-145.67;100.00;66521.78;4981000;28;20053;-75
2022/06/30 10:49:13;;;;;;;6.32;1.38;;;;;;;-145.67;100.00;66521.78;5010994;28;20502;-75
2022/06/30 10:51:39;;;;;;;3.90;1.40;;;;;;;-145.67;100.00;66521.78;5011553;28;20033;-72
2022/06/30 10:54:06;;;;;;;4.53;1.30;;;;;;;-145.67;100.00;66521.78;4986455;28;20375;-73
2022/06/30 10:56:49;;;;;;;5.30;1.40;;;;;;;-145.67;100.00;66521.78;4993925;28;20373;-74
2022/06/30 10:59:16;;;;;;;5.00;1.30;;;;;;;-145.67;100.00;66521.78;4998320;28;20407;-73
2022/06/30 11:02:06;;;;;;;5.22;1.20;;;;;;;-145.67;100.00;66521.78;4996281;28;20340;-73
2022/06/30 11:04:32;;;;;;;4.55;1.30;;;;;;;-145.67;100.00;66521.78;4997259;28;20030;-73
2022/06/30 11:07:01;;;;;;;3.75;1.10;;;;;;;-145.67;100.00;66521.78;4999385;28;20057;-78
2022/06/30 11:09:44;;;;;;;3.40;1.27;;;;;;;-145.67;100.00;66521.78;5004325;28;20041;-73
2022/06/30 11:12:14;;;;;;;3.13;1.00;;;;;;;-145.67;100.00;66521.78;5001917;28;20102;-74
2022/06/30 11:14:48;;;;;;;2.83;0.80;;;;;;;-145.67;100.00;66521.78;5007612;28;20029;-74
2022/06/30 11:17:24;;;;;;;2.28;0.60;;;;;;;-145.67;100.00;66521.78;5005469;28;21799;-73